createdAt,value
2018-01-30T00:00:59.200Z,6.80
2018-01-30T00:06:27.388Z,6.80
2018-01-30T00:11:56.348Z,6.80
2018-01-30T00:17:25.519Z,6.90
2018-01-30T00:22:53.700Z,6.90
2018-01-30T00:28:21.904Z,7.00
2018-01-30T00:33:50.844Z,7.00
2018-01-30T00:39:20.172Z,7.10
2018-01-30T00:44:48.338Z,7.10
2018-01-30T00:50:16.551Z,7.20
2018-01-30T00:55:44.749Z,7.20
2018-01-30T01:01:12.950Z,7.20
2018-01-30T01:06:41.182Z,7.30
2018-01-30T01:12:09.355Z,7.30
2018-01-30T01:17:38.573Z,7.30
2018-01-30T01:23:07.540Z,7.30
2018-01-30T01:28:35.718Z,7.30
2018-01-30T01:34:04.676Z,7.40
2018-01-30T01:39:33.830Z,7.40
2018-01-30T01:45:02.006Z,7.40
2018-01-30T01:50:30.191Z,7.40
2018-01-30T01:55:59.305Z,7.40
2018-01-30T02:01:27.481Z,7.40
2018-01-30T02:06:55.690Z,7.40
2018-01-30T02:12:23.867Z,7.30
2018-01-30T02:17:52.059Z,7.30
2018-01-30T02:23:20.227Z,7.40
2018-01-30T02:28:48.415Z,7.30
2018-01-30T02:34:17.358Z,7.30
2018-01-30T02:39:46.341Z,7.30
2018-01-30T02:45:14.542Z,7.30
2018-01-30T02:50:42.766Z,7.30
2018-01-30T02:56:10.962Z,7.30
2018-01-30T03:01:39.178Z,7.30
2018-01-30T03:07:08.295Z,7.20
2018-01-30T03:12:36.465Z,7.20
2018-01-30T03:18:04.675Z,7.20
2018-01-30T03:23:32.873Z,7.20
2018-01-30T03:29:04.051Z,7.20
2018-01-30T03:34:32.221Z,7.10
2018-01-30T03:40:00.415Z,7.10
2018-01-30T03:45:29.967Z,7.10
2018-01-30T03:50:58.905Z,7.00
2018-01-30T03:56:27.856Z,7.00
2018-01-30T04:01:56.020Z,7.00
2018-01-30T04:07:24.230Z,7.00
2018-01-30T04:12:52.402Z,6.90
2018-01-30T04:18:21.350Z,6.90
2018-01-30T04:23:50.744Z,6.80
2018-01-30T04:29:19.176Z,6.80
2018-01-30T04:34:47.356Z,6.80
2018-01-30T04:40:15.548Z,6.70
2018-01-30T04:45:43.740Z,6.70
2018-01-30T04:51:12.744Z,6.70
2018-01-30T04:56:40.968Z,6.70
2018-01-30T05:02:09.157Z,6.70
2018-01-30T05:07:38.162Z,6.80
2018-01-30T05:13:06.350Z,6.70
2018-01-30T05:18:34.544Z,6.70
2018-01-30T05:24:02.735Z,6.70
2018-01-30T05:29:33.397Z,6.70
2018-01-30T05:35:01.605Z,6.60
2018-01-30T05:40:29.849Z,6.60
2018-01-30T05:45:58.051Z,6.50
2018-01-30T05:51:26.252Z,6.50
2018-01-30T05:56:56.429Z,6.40
2018-01-30T06:02:24.626Z,6.40
2018-01-30T06:07:52.842Z,6.30
2018-01-30T06:13:21.082Z,6.20
2018-01-30T06:18:49.241Z,6.20
2018-01-30T06:24:17.428Z,6.20
2018-01-30T06:29:45.609Z,6.20
2018-01-30T06:35:14.583Z,6.10
2018-01-30T06:40:42.773Z,6.10
2018-01-30T06:46:11.768Z,6.10
2018-01-30T06:51:39.961Z,6.10
2018-01-30T06:57:08.522Z,6.00
2018-01-30T07:02:36.757Z,6.00
2018-01-30T07:08:04.947Z,6.00
2018-01-30T07:13:33.151Z,6.00
2018-01-30T07:19:01.364Z,6.10
2018-01-30T07:24:29.541Z,6.20
2018-01-30T07:29:58.488Z,6.30
2018-01-30T07:35:27.444Z,6.30
2018-01-30T07:40:55.641Z,6.40
2018-01-30T07:46:23.818Z,6.50
2018-01-30T07:51:51.993Z,6.60
2018-01-30T07:57:20.934Z,6.70
2018-01-30T08:02:49.875Z,6.80
2018-01-30T08:08:18.843Z,6.90
2018-01-30T08:13:47.029Z,6.90
2018-01-30T08:19:15.989Z,7.00
2018-01-30T08:24:44.173Z,7.10
2018-01-30T08:30:12.374Z,7.20
2018-01-30T08:35:40.559Z,7.40
2018-01-30T08:41:08.785Z,7.70
2018-01-30T08:46:36.966Z,7.80
2018-01-30T08:52:05.921Z,7.90
2018-01-30T08:57:34.101Z,7.90
2018-01-30T09:03:02.295Z,7.80
2018-01-30T09:08:32.503Z,7.80
2018-01-30T09:14:00.673Z,7.80
2018-01-30T09:19:28.859Z,7.90
2018-01-30T09:24:57.821Z,7.90
2018-01-30T09:30:26.002Z,7.90
2018-01-30T09:35:54.191Z,8.00
2018-01-30T09:41:22.364Z,8.00
2018-01-30T09:46:51.324Z,7.90
2018-01-30T09:52:19.514Z,8.00
2018-01-30T09:57:47.704Z,8.00
2018-01-30T10:03:15.891Z,8.00
2018-01-30T10:08:44.090Z,8.10
2018-01-30T10:14:13.055Z,8.10
2018-01-30T10:19:41.252Z,8.10
2018-01-30T10:25:10.206Z,8.10
2018-01-30T10:30:38.400Z,8.00
2018-01-30T10:36:08.306Z,7.90
2018-01-30T10:41:36.515Z,7.90
2018-01-30T10:47:05.470Z,8.00
2018-01-30T10:52:33.637Z,8.00
2018-01-30T10:58:02.670Z,8.00
2018-01-30T11:03:31.641Z,8.00
2018-01-30T11:08:59.823Z,8.10
2018-01-30T11:14:28.038Z,8.20
2018-01-30T11:19:57.004Z,8.30
2018-01-30T11:25:25.212Z,8.40
2018-01-30T11:30:54.187Z,8.30
2018-01-30T11:36:22.383Z,8.10
2018-01-30T11:41:51.336Z,8.00
2018-01-30T11:47:19.528Z,7.90
2018-01-30T11:52:48.465Z,7.80
2018-01-30T11:58:16.655Z,7.80
2018-01-30T12:03:44.872Z,7.60
2018-01-30T12:09:13.074Z,7.50
2018-01-30T12:14:41.289Z,7.30
2018-01-30T12:20:09.491Z,7.20
2018-01-30T12:25:37.681Z,7.10
2018-01-30T12:31:05.858Z,7.10
2018-01-30T12:36:34.050Z,7.10
2018-01-30T12:42:03.011Z,7.00
2018-01-30T12:47:31.957Z,7.00
2018-01-30T12:53:00.177Z,7.00
2018-01-30T12:58:28.375Z,7.00
2018-01-30T13:03:56.576Z,7.00
2018-01-30T13:09:25.535Z,7.10
2018-01-30T13:14:53.731Z,7.10
2018-01-30T13:20:22.684Z,7.30
2018-01-30T13:25:51.626Z,7.40
2018-01-30T13:31:19.804Z,7.50
2018-01-30T13:36:48.768Z,7.60
2018-01-30T13:42:17.705Z,7.60
2018-01-30T13:47:46.663Z,7.70
2018-01-30T13:53:14.932Z,7.80
2018-01-30T13:58:43.156Z,7.80
2018-01-30T14:04:11.349Z,7.80
2018-01-30T14:09:39.551Z,7.80
2018-01-30T14:15:07.754Z,7.80
2018-01-30T14:20:35.947Z,7.80
2018-01-30T14:26:04.170Z,7.90
2018-01-30T14:31:32.342Z,7.90
2018-01-30T14:37:05.595Z,7.80
2018-01-30T14:42:33.830Z,7.70
2018-01-30T14:48:02.080Z,7.60
2018-01-30T14:53:30.276Z,7.60
2018-01-30T14:58:58.445Z,7.50
2018-01-30T15:04:27.392Z,7.50
2018-01-30T15:09:55.638Z,7.30
2018-01-30T15:15:23.814Z,7.10
2018-01-30T15:20:52.761Z,7.10
2018-01-30T15:26:21.714Z,7.00
2018-01-30T15:31:49.892Z,6.90
2018-01-30T15:37:18.068Z,6.80
2018-01-30T15:42:46.255Z,6.80
2018-01-30T15:48:15.200Z,6.70
2018-01-30T15:53:44.192Z,6.70
2018-01-30T15:59:12.380Z,6.70
2018-01-30T16:04:40.601Z,6.60
2018-01-30T16:10:08.797Z,6.60
2018-01-30T16:15:37.044Z,6.60
2018-01-30T16:21:05.229Z,6.60
2018-01-30T16:26:33.616Z,6.60
2018-01-30T16:32:01.801Z,6.60
2018-01-30T16:37:30.763Z,6.60
2018-01-30T16:42:58.943Z,6.60
2018-01-30T16:48:27.987Z,6.60
2018-01-30T16:53:56.943Z,6.50
2018-01-30T16:59:25.936Z,6.50
2018-01-30T17:04:54.117Z,6.50
2018-01-30T17:10:23.065Z,6.50
2018-01-30T17:15:51.332Z,6.40
2018-01-30T17:21:19.542Z,6.30
2018-01-30T17:26:47.743Z,6.30
2018-01-30T17:32:20.256Z,6.20
2018-01-30T17:37:48.433Z,6.10
2018-01-30T17:43:16.624Z,6.00
2018-01-30T17:48:48.333Z,5.90
2018-01-30T17:54:16.509Z,5.80
2018-01-30T17:59:46.615Z,5.70
2018-01-30T18:05:14.847Z,5.70
2018-01-30T18:10:43.076Z,5.60
2018-01-30T18:16:11.296Z,5.70
2018-01-30T18:21:39.546Z,5.60
2018-01-30T18:27:13.136Z,5.70
2018-01-30T18:32:41.333Z,5.70
2018-01-30T18:38:10.288Z,5.70
2018-01-30T18:43:38.584Z,5.80
2018-01-30T18:49:07.536Z,5.80
2018-01-30T18:54:35.737Z,5.80
2018-01-30T19:00:03.918Z,5.80
2018-01-30T19:05:32.114Z,5.90
2018-01-30T19:11:00.327Z,5.90
2018-01-30T19:16:28.557Z,5.90
2018-01-30T19:21:56.797Z,5.90
2018-01-30T19:27:32.243Z,5.90
2018-01-30T19:33:01.455Z,5.90
2018-01-30T19:38:29.764Z,5.90
2018-01-30T19:43:58.008Z,5.90
2018-01-30T19:49:27.149Z,5.90
2018-01-30T19:54:57.087Z,5.90
2018-01-30T20:00:25.302Z,5.90
2018-01-30T20:05:56.926Z,5.90
2018-01-30T20:11:25.141Z,5.90
2018-01-30T20:16:55.286Z,5.90
2018-01-30T20:22:24.489Z,5.90
2018-01-30T20:27:53.451Z,5.80
2018-01-30T20:33:21.661Z,5.80
2018-01-30T20:38:49.837Z,5.80
2018-01-30T20:44:18.031Z,5.80
2018-01-30T20:49:46.237Z,5.80
2018-01-30T20:55:14.449Z,5.80
2018-01-30T21:00:43.440Z,5.70
2018-01-30T21:06:13.628Z,5.70
2018-01-30T21:11:42.884Z,5.70
2018-01-30T21:17:18.089Z,5.70
2018-01-30T21:22:46.260Z,5.80
2018-01-30T21:28:14.455Z,5.80
2018-01-30T21:33:42.648Z,5.80
2018-01-30T21:39:18.029Z,5.80
2018-01-30T21:44:53.207Z,5.70
2018-01-30T21:50:27.536Z,5.70
2018-01-30T21:55:59.728Z,5.80
2018-01-30T22:01:27.928Z,5.70
2018-01-30T22:06:56.128Z,5.70
2018-01-30T22:12:26.052Z,5.70
2018-01-30T22:17:54.250Z,5.70
2018-01-30T22:23:22.451Z,5.70
2018-01-30T22:28:56.505Z,5.70
2018-01-30T22:34:25.431Z,5.70
2018-01-30T22:39:57.901Z,5.80
2018-01-30T22:45:26.117Z,5.80
